Time;durP1;ratioP1;P1;durP2;ratioP2;P2;SDS_P1;SDS_P2;PMS_P1;PMS_P2;Temp;Humidity;BMP_temperature;BMP_pressure;BME280_temperature;BME280_humidity;BME280_pressure;Samples;Min_cycle;Max_cycle;Signal;HPM_P1;HPM_P2
2022/06/30 00:02:02;;;;;;;8.02;2.80;;;26.80;1.00;;;;;;5155166;27;20384;-57
2022/06/30 00:04:27;;;;;;;7.25;4.03;;;26.80;1.00;;;;;;5155400;27;20031;-58
2022/06/30 00:06:53;;;;;;;5.63;3.33;;;26.50;1.00;;;;;;5155011;27;20030;-59
2022/06/30 00:09:19;;;;;;;11.00;3.55;;;26.60;1.00;;;;;;5155989;27;20080;-58
2022/06/30 00:11:45;;;;;;;7.75;3.47;;;26.80;1.00;;;;;;5154845;27;20422;-58
2022/06/30 00:14:10;;;;;;;7.93;3.33;;;26.50;1.00;;;;;;5156307;27;20025;-58
2022/06/30 00:16:36;;;;;;;8.82;3.92;;;26.40;1.00;;;;;;5155019;27;20110;-59
2022/06/30 00:19:01;;;;;;;7.63;3.55;;;26.60;1.00;;;;;;5155198;27;20093;-58
2022/06/30 00:21:27;;;;;;;6.82;3.60;;;26.90;1.00;;;;;;5145420;27;20105;-58
2022/06/30 00:23:53;;;;;;;5.82;3.08;;;26.50;1.00;;;;;;5154686;27;20039;-59
2022/06/30 00:26:18;;;;;;;10.27;3.38;;;26.80;1.00;;;;;;5144904;27;20027;-59
2022/06/30 00:28:44;;;;;;;5.05;3.40;;;27.00;1.00;;;;;;5155679;27;20027;-59
2022/06/30 00:31:10;;;;;;;10.27;3.50;;;26.80;1.00;;;;;;5153322;27;20038;-58
2022/06/30 00:33:35;;;;;;;7.03;3.97;;;26.70;1.00;;;;;;5155938;27;20023;-58
2022/06/30 00:36:01;;;;;;;4.53;3.10;;;26.70;1.00;;;;;;5154476;27;20026;-57
2022/06/30 00:38:27;;;;;;;5.97;3.38;;;26.90;1.00;;;;;;5154977;27;20014;-59
2022/06/30 00:40:52;;;;;;;4.60;3.28;;;26.90;1.00;;;;;;5145656;27;20027;-58
2022/06/30 00:43:18;;;;;;;5.55;3.67;;;26.80;1.00;;;;;;5153776;27;20027;-58
2022/06/30 00:45:47;;;;;;;7.50;3.17;;;27.00;1.00;;;;;;5153580;27;20125;-58
2022/06/30 00:48:15;;;;;;;10.07;3.70;;;26.70;1.00;;;;;;5155327;27;20046;-58
2022/06/30 00:50:41;;;;;;;9.73;3.70;;;26.80;1.00;;;;;;5153133;27;20081;-59
2022/06/30 00:53:08;;;;;;;6.40;3.35;;;26.50;1.00;;;;;;5155184;27;20037;-58
2022/06/30 00:55:34;;;;;;;8.30;3.75;;;26.50;1.00;;;;;;5143685;27;20472;-58
2022/06/30 00:58:03;;;;;;;9.10;3.80;;;26.80;1.00;;;;;;5151527;27;20094;-59
2022/06/30 01:00:38;;;;;;;7.43;3.53;;;26.50;1.00;;;;;;5154660;27;20041;-59
2022/06/30 01:03:06;;;;;;;6.68;3.83;;;26.60;1.00;;;;;;5149116;27;20476;-58
2022/06/30 01:05:32;;;;;;;8.52;3.90;;;26.50;1.00;;;;;;5150784;27;20042;-58
2022/06/30 01:08:00;;;;;;;7.00;3.33;;;26.30;1.00;;;;;;5153082;27;20023;-59
2022/06/30 01:13:09;;;;;;;5.72;3.25;;;26.30;1.00;;;;;;5153487;27;20046;-59
2022/06/30 01:15:35;;;;;;;8.43;3.75;;;26.40;1.00;;;;;;5142849;27;20433;-58
2022/06/30 01:18:01;;;;;;;8.73;3.38;;;26.20;1.00;;;;;;5152684;27;20019;-58
2022/06/30 01:20:29;;;;;;;7.97;3.42;;;26.20;1.00;;;;;;5138013;27;20057;-59
2022/06/30 01:22:57;;;;;;;7.90;3.70;;;26.50;1.00;;;;;;5153853;27;20105;-59
2022/06/30 01:25:24;;;;;;;5.45;2.95;;;26.60;1.00;;;;;;5151003;27;20114;-59
2022/06/30 01:27:50;;;;;;;9.40;4.15;;;26.60;1.00;;;;;;5153019;27;20015;-58
2022/06/30 01:30:16;;;;;;;8.15;3.80;;;26.40;1.00;;;;;;5152434;27;20046;-58
2022/06/30 01:32:41;;;;;;;8.48;3.95;;;26.40;1.00;;;;;;5150393;27;20324;-59
2022/06/30 01:35:08;;;;;;;8.88;4.00;;;26.30;1.00;;;;;;5153628;27;20149;-58
2022/06/30 01:37:47;;;;;;;9.52;3.78;;;26.40;1.00;;;;;;5147277;27;20520;-59
2022/06/30 01:40:13;;;;;;;7.55;3.45;;;26.70;1.00;;;;;;5139244;27;20074;-58
2022/06/30 01:42:39;;;;;;;6.78;4.05;;;26.40;1.00;;;;;;5146540;27;20110;-59
2022/06/30 01:45:05;;;;;;;9.68;3.65;;;26.40;1.00;;;;;;5148169;27;20027;-58
2022/06/30 01:47:31;;;;;;;7.10;3.50;;;26.50;1.00;;;;;;5136985;27;20546;-58
2022/06/30 01:49:56;;;;;;;5.50;3.20;;;26.30;1.00;;;;;;5147186;27;20117;-58
2022/06/30 01:52:22;;;;;;;7.50;3.15;;;26.30;1.00;;;;;;5150642;27;20022;-59
2022/06/30 01:54:48;;;;;;;7.20;3.40;;;26.60;1.00;;;;;;5147629;27;20019;-58
2022/06/30 01:57:13;;;;;;;5.97;3.30;;;26.40;1.00;;;;;;5146977;27;20487;-58
2022/06/30 01:59:39;;;;;;;7.90;3.47;;;26.40;1.00;;;;;;5149639;27;20058;-59
2022/06/30 02:02:05;;;;;;;7.10;3.00;;;26.50;1.00;;;;;;5149663;27;20102;-59
2022/06/30 02:04:48;;;;;;;8.40;3.60;;;26.40;1.00;;;;;;5139895;27;20030;-58
2022/06/30 02:07:17;;;;;;;5.57;3.15;;;26.30;1.00;;;;;;5150750;27;20136;-58
2022/06/30 02:09:43;;;;;;;5.68;3.40;;;26.40;1.00;;;;;;5152218;27;20038;-58
2022/06/30 02:14:54;;;;;;;3.95;3.30;;;26.20;1.00;;;;;;5153119;27;20034;-58
2022/06/30 02:17:19;;;;;;;6.32;3.17;;;26.10;1.00;;;;;;5141177;27;20028;-56
2022/06/30 02:19:45;;;;;;;8.32;3.45;;;26.10;1.00;;;;;;5148602;27;20048;-57
2022/06/30 02:22:11;;;;;;;7.63;3.40;;;26.00;1.00;;;;;;5147023;27;20023;-58
2022/06/30 02:24:37;;;;;;;5.82;3.17;;;26.30;1.00;;;;;;5145865;27;20126;-58
2022/06/30 02:27:03;;;;;;;5.38;3.38;;;26.40;1.00;;;;;;5147501;27;20026;-59
2022/06/30 02:29:28;;;;;;;5.90;3.25;;;26.10;1.00;;;;;;5149755;27;20031;-58
2022/06/30 02:31:54;;;;;;;5.80;3.13;;;26.30;1.00;;;;;;5146275;27;20378;-58
2022/06/30 02:34:20;;;;;;;4.97;3.25;;;26.20;1.00;;;;;;5134677;27;20038;-59
2022/06/30 02:37:04;;;;;;;7.85;3.20;;;26.20;1.00;;;;;;5152000;27;20034;-59
2022/06/30 02:39:29;;;;;;;6.22;2.78;;;26.30;1.00;;;;;;5138840;27;20023;-59
2022/06/30 02:41:55;;;;;;;6.93;3.08;;;26.40;1.00;;;;;;5149898;27;20424;-60
2022/06/30 02:44:21;;;;;;;6.20;3.28;;;26.20;1.00;;;;;;5150465;27;20041;-59
2022/06/30 02:46:50;;;;;;;5.40;2.78;;;26.20;1.00;;;;;;5149872;27;20480;-59
2022/06/30 02:49:17;;;;;;;4.93;3.03;;;26.40;1.00;;;;;;5149855;27;20041;-57
2022/06/30 02:51:42;;;;;;;5.32;4.10;;;26.20;1.00;;;;;;5151731;27;20437;-58
2022/06/30 02:54:08;;;;;;;6.18;3.38;;;26.40;1.00;;;;;;5148440;27;20030;-58
2022/06/30 02:56:34;;;;;;;7.93;3.20;;;26.20;1.00;;;;;;5143182;27;20472;-57
2022/06/30 02:58:59;;;;;;;8.38;3.63;;;26.20;1.00;;;;;;5151183;27;20026;-58
2022/06/30 03:01:25;;;;;;;6.63;3.00;;;26.10;1.00;;;;;;5148711;27;20067;-57
2022/06/30 03:03:50;;;;;;;6.82;3.47;;;26.10;1.00;;;;;;5151797;27;20031;-58
2022/06/30 03:06:16;;;;;;;8.90;3.55;;;26.30;1.00;;;;;;5148744;27;20055;-58
2022/06/30 03:08:42;;;;;;;8.57;3.58;;;26.00;1.00;;;;;;5149067;27;20125;-58
2022/06/30 03:11:07;;;;;;;7.50;3.22;;;26.00;1.00;;;;;;5151466;27;20049;-58
2022/06/30 03:13:33;;;;;;;5.45;3.25;;;26.20;1.00;;;;;;5151219;27;20101;-58
2022/06/30 03:16:01;;;;;;;8.00;3.38;;;26.40;1.00;;;;;;5147004;27;20102;-57
2022/06/30 03:18:27;;;;;;;3.42;2.97;;;26.10;1.00;;;;;;5143676;27;20059;-57
2022/06/30 03:20:53;;;;;;;5.28;3.28;;;26.00;1.00;;;;;;5150353;27;20332;-57
2022/06/30 03:23:19;;;;;;;4.80;2.80;;;26.10;1.00;;;;;;5148742;27;20111;-56
2022/06/30 03:25:44;;;;;;;6.35;3.20;;;25.90;1.00;;;;;;5154395;27;20141;-57
2022/06/30 03:28:10;;;;;;;5.32;3.15;;;25.90;1.00;;;;;;5154311;27;20212;-57
2022/06/30 03:30:35;;;;;;;7.00;3.22;;;25.80;1.00;;;;;;5154717;27;20453;-58
2022/06/30 03:33:01;;;;;;;7.60;3.85;;;25.80;1.00;;;;;;5149225;27;20019;-57
2022/06/30 03:35:27;;;;;;;6.75;3.20;;;25.90;1.00;;;;;;5155618;27;20382;-59
2022/06/30 03:37:52;;;;;;;5.15;3.25;;;25.90;1.00;;;;;;5140802;27;20083;-58
2022/06/30 03:40:18;;;;;;;6.85;3.20;;;25.60;1.00;;;;;;5154449;27;20026;-58
2022/06/30 03:42:43;;;;;;;7.63;3.38;;;25.70;1.00;;;;;;5154610;27;20022;-57
2022/06/30 03:45:09;;;;;;;9.50;3.50;;;25.70;1.00;;;;;;5154232;27;20113;-59
2022/06/30 03:47:35;;;;;;;10.07;3.85;;;25.70;1.00;;;;;;5151885;27;20038;-58
2022/06/30 03:50:00;;;;;;;6.00;3.08;;;25.80;1.00;;;;;;5149952;27;20069;-58
2022/06/30 03:52:27;;;;;;;6.03;3.60;;;25.60;1.00;;;;;;5152269;27;20022;-56
2022/06/30 03:54:53;;;;;;;7.05;3.33;;;26.00;1.00;;;;;;5141337;27;20027;-58
2022/06/30 03:57:18;;;;;;;6.78;3.13;;;25.90;1.00;;;;;;5152456;27;20098;-58
2022/06/30 03:59:44;;;;;;;8.00;3.60;;;25.90;1.00;;;;;;5151913;27;20122;-57
2022/06/30 04:02:10;;;;;;;7.85;3.30;;;26.00;1.00;;;;;;5143034;27;20472;-58
2022/06/30 04:04:35;;;;;;;6.25;3.28;;;25.80;1.00;;;;;;5152235;27;20484;-56
2022/06/30 04:07:01;;;;;;;5.90;3.40;;;25.90;1.00;;;;;;5152477;27;20027;-55
2022/06/30 04:09:27;;;;;;;5.95;3.00;;;25.80;1.00;;;;;;5151388;27;20105;-56
2022/06/30 04:11:52;;;;;;;4.43;3.10;;;25.80;1.00;;;;;;5154448;27;20043;-55
2022/06/30 04:14:18;;;;;;;4.00;2.92;;;25.90;1.00;;;;;;5149810;27;20118;-55
2022/06/30 04:16:44;;;;;;;5.38;3.25;;;25.80;1.00;;;;;;5154584;27;20026;-57
2022/06/30 04:19:09;;;;;;;5.60;3.47;;;25.90;1.00;;;;;;5151242;27;20432;-56
2022/06/30 04:21:35;;;;;;;6.75;3.35;;;25.80;1.00;;;;;;5155619;27;20026;-57
2022/06/30 04:24:00;;;;;;;6.70;3.17;;;26.10;1.00;;;;;;5142920;27;20396;-57
2022/06/30 04:26:26;;;;;;;6.32;3.50;;;25.70;1.00;;;;;;5155454;27;20190;-56
2022/06/30 04:28:51;;;;;;;8.07;2.92;;;25.70;1.00;;;;;;5154323;27;20413;-57
2022/06/30 04:34:01;;;;;;;5.70;3.15;;;25.80;1.00;;;;;;5153558;27;20112;-58
2022/06/30 04:36:27;;;;;;;10.95;3.85;;;25.90;1.00;;;;;;5154684;27;20098;-56
2022/06/30 04:38:52;;;;;;;4.93;3.03;;;25.90;1.00;;;;;;5154409;27;20102;-58
2022/06/30 04:41:24;;;;;;;6.63;3.95;;;25.60;1.00;;;;;;5155155;27;20468;-58
2022/06/30 04:43:57;;;;;;;6.13;3.78;;;25.60;1.00;;;;;;5154370;27;20112;-57
2022/06/30 04:46:23;;;;;;;11.55;4.22;;;25.60;1.00;;;;;;5154493;27;20101;-57
2022/06/30 04:48:50;;;;;;;8.23;3.65;;;25.30;1.00;;;;;;5145559;27;20023;-57
2022/06/30 04:51:17;;;;;;;6.55;3.58;;;25.40;1.00;;;;;;5153443;27;20051;-57
2022/06/30 04:53:43;;;;;;;7.38;3.55;;;25.60;1.00;;;;;;5152834;27;20023;-57
2022/06/30 04:56:09;;;;;;;4.32;2.88;;;25.30;1.00;;;;;;5147883;27;20034;-57
2022/06/30 04:58:36;;;;;;;6.25;3.33;;;25.40;1.00;;;;;;5151190;27;20527;-57
2022/06/30 05:01:02;;;;;;;4.93;3.13;;;25.50;1.00;;;;;;5153223;27;20119;-59
2022/06/30 05:03:28;;;;;;;8.45;3.95;;;25.80;1.00;;;;;;5148516;27;20022;-58
2022/06/30 05:05:54;;;;;;;5.20;3.50;;;25.90;1.00;;;;;;5149767;27;20041;-57
2022/06/30 05:08:20;;;;;;;3.88;3.38;;;25.60;1.00;;;;;;5143368;27;20023;-58
2022/06/30 05:10:45;;;;;;;9.32;3.60;;;25.80;1.00;;;;;;5152962;27;20043;-58
2022/06/30 05:13:11;;;;;;;8.18;3.58;;;25.60;1.00;;;;;;5143266;27;20522;-58
2022/06/30 05:15:37;;;;;;;7.13;2.90;;;25.60;1.00;;;;;;5152543;27;20030;-57
2022/06/30 05:18:03;;;;;;;4.40;3.10;;;25.70;1.00;;;;;;5153326;27;20440;-57
2022/06/30 05:20:29;;;;;;;6.95;3.30;;;25.50;1.00;;;;;;5149460;27;20463;-57
2022/06/30 05:22:54;;;;;;;4.65;3.10;;;25.70;1.00;;;;;;5143799;27;20094;-58
2022/06/30 05:28:04;;;;;;;9.32;3.38;;;25.70;1.00;;;;;;5151041;27;20467;-56
2022/06/30 05:30:30;;;;;;;7.57;3.63;;;25.80;1.00;;;;;;5153202;27;20047;-56
2022/06/30 05:32:56;;;;;;;5.55;3.40;;;25.70;1.00;;;;;;5154294;27;20325;-57
2022/06/30 05:35:21;;;;;;;4.50;3.13;;;25.90;1.00;;;;;;5149809;27;20031;-57
2022/06/30 05:37:48;;;;;;;8.45;3.35;;;25.50;1.00;;;;;;5152711;27;20564;-56
2022/06/30 05:40:13;;;;;;;7.78;3.40;;;25.60;1.00;;;;;;5149168;27;20111;-56
2022/06/30 05:42:39;;;;;;;5.88;3.75;;;25.80;1.00;;;;;;5145527;27;20435;-54
2022/06/30 05:45:05;;;;;;;6.93;2.80;;;25.50;1.00;;;;;;5149448;27;20399;-58
2022/06/30 05:47:30;;;;;;;7.32;3.13;;;25.60;1.00;;;;;;5148695;27;20535;-57
2022/06/30 05:49:56;;;;;;;9.00;3.75;;;25.60;1.00;;;;;;5144657;27;20047;-57
2022/06/30 05:52:22;;;;;;;9.00;3.90;;;25.40;1.00;;;;;;5139747;27;20064;-57
2022/06/30 05:54:47;;;;;;;6.05;3.30;;;25.60;1.00;;;;;;5149458;27;20481;-60
2022/06/30 05:57:13;;;;;;;7.65;3.70;;;25.40;1.00;;;;;;5145729;27;20464;-58
2022/06/30 05:59:39;;;;;;;8.95;3.72;;;25.70;1.00;;;;;;5148115;27;20132;-57
2022/06/30 06:02:05;;;;;;;5.25;3.83;;;25.80;1.00;;;;;;5144350;27;20022;-57
2022/06/30 06:04:30;;;;;;;7.30;3.78;;;25.80;1.00;;;;;;5152101;27;20026;-57
2022/06/30 06:06:56;;;;;;;6.60;3.58;;;25.70;1.00;;;;;;5153784;27;20472;-58
2022/06/30 06:09:21;;;;;;;4.43;3.35;;;25.90;1.00;;;;;;5147735;27;20071;-58
2022/06/30 06:11:47;;;;;;;7.63;3.60;;;25.70;1.00;;;;;;5142879;27;20418;-58
2022/06/30 06:14:13;;;;;;;9.80;3.95;;;25.80;1.00;;;;;;5152014;27;20083;-59
2022/06/30 06:16:38;;;;;;;6.03;3.38;;;25.60;1.00;;;;;;5139195;27;20317;-58
2022/06/30 06:19:04;;;;;;;7.10;3.85;;;25.80;1.00;;;;;;5135509;27;20412;-60
2022/06/30 06:21:32;;;;;;;5.35;3.22;;;25.80;1.00;;;;;;5149874;27;20062;-64
2022/06/30 06:23:57;;;;;;;6.15;3.15;;;25.90;1.00;;;;;;5148549;27;20113;-60
2022/06/30 06:26:23;;;;;;;5.38;3.42;;;26.10;1.00;;;;;;5144963;27;20109;-53
2022/06/30 06:29:07;;;;;;;4.57;3.05;;;25.80;1.00;;;;;;5135893;27;20019;-54
2022/06/30 06:31:35;;;;;;;5.53;3.40;;;25.70;1.00;;;;;;5153055;27;20030;-64
2022/06/30 06:34:02;;;;;;;5.43;3.20;;;26.00;1.00;;;;;;5148538;27;20026;-72
2022/06/30 06:36:28;;;;;;;5.55;3.55;;;25.90;1.00;;;;;;5150939;27;20018;-65
2022/06/30 06:38:54;;;;;;;5.90;3.30;;;26.20;1.00;;;;;;5150092;27;20031;-60
2022/06/30 06:41:23;;;;;;;7.57;4.10;;;26.20;1.00;;;;;;5149197;27;20023;-63
2022/06/30 06:43:50;;;;;;;7.93;3.50;;;25.90;1.00;;;;;;5148202;27;20483;-63
2022/06/30 06:46:16;;;;;;;6.05;3.20;;;25.90;1.00;;;;;;5153139;27;20026;-69
2022/06/30 06:48:42;;;;;;;6.85;3.67;;;25.90;1.00;;;;;;5131649;27;20055;-69
2022/06/30 06:51:07;;;;;;;4.60;3.58;;;26.00;1.00;;;;;;5143700;27;20073;-51
2022/06/30 06:53:33;;;;;;;5.93;3.28;;;26.20;1.00;;;;;;5146575;27;20126;-50
2022/06/30 06:55:59;;;;;;;6.78;3.75;;;26.00;1.00;;;;;;5152119;27;20109;-53
2022/06/30 06:58:24;;;;;;;6.93;3.78;;;26.20;1.00;;;;;;5146638;27;20787;-52
2022/06/30 07:00:52;;;;;;;9.70;3.38;;;26.20;1.00;;;;;;5148268;27;20143;-50
2022/06/30 07:03:18;;;;;;;7.85;3.85;;;26.40;1.00;;;;;;5144963;27;20030;-55
2022/06/30 07:05:44;;;;;;;5.72;4.00;;;26.40;1.00;;;;;;5144207;27;20027;-57
2022/06/30 07:08:09;;;;;;;4.35;3.15;;;26.40;1.00;;;;;;5147267;27;20027;-57
2022/06/30 07:10:35;;;;;;;3.72;3.30;;;26.30;1.00;;;;;;5148342;27;20038;-52
2022/06/30 07:13:01;;;;;;;8.77;4.25;;;26.50;1.00;;;;;;5147999;27;20049;-52
2022/06/30 07:15:26;;;;;;;5.28;3.25;;;26.50;1.00;;;;;;5152316;27;20030;-52
2022/06/30 07:17:52;;;;;;;7.00;3.38;;;26.40;1.00;;;;;;5149411;27;20026;-48
2022/06/30 07:20:17;;;;;;;8.40;3.47;;;26.60;1.00;;;;;;5151674;27;20472;-56
2022/06/30 07:22:43;;;;;;;5.35;3.20;;;26.40;1.00;;;;;;5151883;27;20014;-60
2022/06/30 07:25:09;;;;;;;7.22;3.33;;;26.40;1.00;;;;;;5152644;27;20019;-58
2022/06/30 07:27:36;;;;;;;7.45;3.92;;;26.70;1.00;;;;;;5151844;27;20023;-60
2022/06/30 07:30:02;;;;;;;6.45;3.20;;;26.70;1.00;;;;;;5149514;27;20038;-58
2022/06/30 07:32:28;;;;;;;4.55;3.25;;;26.60;1.00;;;;;;5148087;27;20115;-48
2022/06/30 07:34:53;;;;;;;6.30;3.65;;;26.70;1.00;;;;;;5149445;27;20450;-51
2022/06/30 07:37:19;;;;;;;5.28;3.08;;;26.70;1.00;;;;;;5132277;27;20052;-56
2022/06/30 07:39:45;;;;;;;5.53;2.85;;;26.70;1.00;;;;;;5148532;27;20030;-55
2022/06/30 07:42:10;;;;;;;5.53;3.33;;;26.90;1.00;;;;;;5149524;27;20066;-54
2022/06/30 07:44:36;;;;;;;4.60;3.22;;;26.70;1.00;;;;;;5149587;27;20110;-57
2022/06/30 07:47:02;;;;;;;6.95;3.45;;;26.70;1.00;;;;;;5136470;27;20018;-53
2022/06/30 07:49:27;;;;;;;5.93;3.30;;;27.00;1.00;;;;;;5150868;27;20169;-55
2022/06/30 07:51:54;;;;;;;8.55;3.58;;;26.90;1.00;;;;;;5149621;27;20030;-58
2022/06/30 07:54:19;;;;;;;4.95;3.78;;;26.90;1.00;;;;;;5150201;27;20475;-55
2022/06/30 07:56:45;;;;;;;5.43;3.35;;;27.20;1.00;;;;;;5147318;27;20035;-56
2022/06/30 07:59:11;;;;;;;7.57;2.70;;;27.00;1.00;;;;;;5147496;27;20084;-51
2022/06/30 08:01:37;;;;;;;8.82;3.53;;;27.10;1.00;;;;;;5134230;27;20419;-51
2022/06/30 08:04:03;;;;;;;7.20;3.65;;;27.10;1.00;;;;;;5145690;27;20111;-58
2022/06/30 08:06:29;;;;;;;7.43;3.58;;;27.10;1.00;;;;;;5147811;27;20056;-55
2022/06/30 08:08:54;;;;;;;8.25;3.83;;;27.20;1.00;;;;;;5148634;27;20038;-56
2022/06/30 08:11:20;;;;;;;7.32;3.75;;;27.30;1.00;;;;;;5169420;27;20133;-59
2022/06/30 08:13:47;;;;;;;7.72;3.20;;;27.30;1.00;;;;;;5150257;27;20041;-64
2022/06/30 08:16:13;;;;;;;6.85;3.60;;;27.20;1.00;;;;;;5151747;27;20027;-56
2022/06/30 08:18:39;;;;;;;3.90;3.40;;;27.10;1.00;;;;;;5155381;27;20047;-60
2022/06/30 08:21:04;;;;;;;6.07;3.70;;;27.60;1.00;;;;;;5152399;27;20099;-63
2022/06/30 08:23:30;;;;;;;7.05;3.78;;;27.50;1.00;;;;;;5153650;27;20095;-63
2022/06/30 08:25:56;;;;;;;5.47;3.20;;;27.40;1.00;;;;;;5147538;27;20035;-63
2022/06/30 08:28:21;;;;;;;7.57;4.18;;;27.40;1.00;;;;;;5150051;27;20026;-58
2022/06/30 08:30:48;;;;;;;5.88;3.63;;;27.50;1.00;;;;;;5144578;27;20030;-62
2022/06/30 08:33:14;;;;;;;8.30;3.67;;;27.90;1.00;;;;;;5147928;27;20095;-60
2022/06/30 08:35:40;;;;;;;5.07;4.22;;;27.90;1.00;;;;;;5152831;27;20605;-60
2022/06/30 08:38:06;;;;;;;10.13;4.40;;;27.70;1.00;;;;;;5153501;27;20463;-60
2022/06/30 08:43:18;;;;;;;7.65;3.95;;;27.80;1.00;;;;;;5151478;27;20040;-66
2022/06/30 08:45:45;;;;;;;8.70;4.40;;;27.60;1.00;;;;;;5148215;27;20022;-69
2022/06/30 08:48:12;;;;;;;7.25;4.47;;;27.50;1.00;;;;;;5149523;27;20022;-62
2022/06/30 08:50:42;;;;;;;9.35;4.93;;;27.80;1.00;;;;;;5147776;27;20093;-61
2022/06/30 08:53:09;;;;;;;5.55;3.83;;;27.60;1.00;;;;;;5147852;27;20416;-61
2022/06/30 08:55:37;;;;;;;4.15;3.75;;;27.60;1.00;;;;;;5145916;27;20027;-58
2022/06/30 08:58:07;;;;;;;7.03;4.53;;;27.60;1.00;;;;;;5143775;27;20033;-60
2022/06/30 09:00:36;;;;;;;9.48;4.20;;;27.80;1.00;;;;;;5153316;27;20106;-59
2022/06/30 09:03:03;;;;;;;8.10;3.50;;;27.80;1.00;;;;;;5146792;27;20019;-61
2022/06/30 09:05:29;;;;;;;7.10;3.88;;;27.80;1.00;;;;;;5138072;27;20031;-60
2022/06/30 09:07:55;;;;;;;5.53;3.58;;;28.00;1.00;;;;;;5143619;27;20083;-60
2022/06/30 09:10:22;;;;;;;6.70;4.38;;;28.10;1.00;;;;;;5149450;27;20548;-60
2022/06/30 09:12:57;;;;;;;7.47;4.28;;;27.90;1.00;;;;;;5148068;27;20075;-64
2022/06/30 09:15:22;;;;;;;6.63;4.15;;;28.10;1.00;;;;;;5149599;27;20109;-59
2022/06/30 09:17:48;;;;;;;6.80;5.00;;;28.10;1.00;;;;;;5151495;27;22167;-57
2022/06/30 09:20:14;;;;;;;9.80;4.53;;;28.00;1.00;;;;;;5151889;27;20113;-58
2022/06/30 09:22:41;;;;;;;12.80;4.35;;;27.90;1.00;;;;;;5155480;27;20019;-58
2022/06/30 09:25:14;;;;;;;8.85;4.50;;;28.10;1.00;;;;;;5140311;27;20026;-58
2022/06/30 09:27:42;;;;;;;9.20;4.82;;;28.20;1.00;;;;;;5150426;27;20018;-56
2022/06/30 09:30:09;;;;;;;12.15;4.80;;;28.20;1.00;;;;;;5150492;27;20037;-57
2022/06/30 09:32:50;;;;;;;9.75;4.90;;;28.30;1.00;;;;;;5155100;27;20109;-58
2022/06/30 09:35:17;;;;;;;7.20;4.20;;;28.30;1.00;;;;;;5153993;27;20023;-59
2022/06/30 09:37:44;;;;;;;8.85;4.43;;;28.10;1.00;;;;;;5154952;27;20026;-60
2022/06/30 09:40:10;;;;;;;10.10;4.50;;;28.30;1.00;;;;;;5153671;27;20030;-58
2022/06/30 09:42:37;;;;;;;8.02;4.05;;;28.50;1.00;;;;;;5154864;27;20037;-59
2022/06/30 09:45:04;;;;;;;6.72;4.32;;;28.30;1.00;;;;;;5153689;27;20459;-56
2022/06/30 09:47:30;;;;;;;5.07;3.63;;;28.40;1.00;;;;;;5141633;27;20422;-59
2022/06/30 09:50:04;;;;;;;8.48;3.78;;;28.30;1.00;;;;;;5153384;27;20035;-58
2022/06/30 09:52:30;;;;;;;7.05;3.63;;;28.40;1.00;;;;;;5154690;27;20026;-58
2022/06/30 09:55:06;;;;;;;7.75;3.83;;;28.70;1.00;;;;;;5153542;27;20086;-54
2022/06/30 09:57:36;;;;;;;7.65;4.47;;;28.50;1.00;;;;;;5151653;27;20023;-57
2022/06/30 10:00:11;;;;;;;7.93;5.07;;;28.60;1.00;;;;;;5152581;27;20102;-58
2022/06/30 10:02:39;;;;;;;7.78;4.03;;;28.60;1.00;;;;;;5149013;27;20102;-57
2022/06/30 10:05:06;;;;;;;7.07;4.60;;;28.90;1.00;;;;;;5148980;27;20015;-59
2022/06/30 10:07:36;;;;;;;5.68;4.38;;;28.70;1.00;;;;;;5147104;27;20376;-58
2022/06/30 10:10:04;;;;;;;8.45;5.88;;;28.90;1.00;;;;;;5143080;27;20073;-54
2022/06/30 10:12:31;;;;;;;4.78;3.72;;;28.90;1.00;;;;;;5146081;27;20187;-53
2022/06/30 10:14:56;;;;;;;5.70;4.03;;;28.80;1.00;;;;;;5145187;27;20484;-53
2022/06/30 10:17:25;;;;;;;9.30;4.22;;;29.00;1.00;;;;;;5146630;27;20026;-60
2022/06/30 10:19:52;;;;;;;7.38;3.88;;;28.90;1.00;;;;;;5146268;27;20027;-57
2022/06/30 10:22:19;;;;;;;7.22;3.80;;;28.90;1.00;;;;;;5142850;27;20567;-63
2022/06/30 10:24:46;;;;;;;4.32;3.90;;;29.10;1.00;;;;;;5144184;27;20063;-63
2022/06/30 10:27:13;;;;;;;6.63;4.22;;;29.30;1.00;;;;;;5142206;27;20404;-52
2022/06/30 10:29:45;;;;;;;8.00;4.05;;;29.30;1.00;;;;;;5142412;27;20026;-58
2022/06/30 10:32:42;;;;;;;5.43;3.97;;;29.20;1.00;;;;;;5144088;27;20047;-59
2022/06/30 10:35:26;;;;;;;5.70;3.65;;;29.20;1.00;;;;;;5144596;27;20042;-59
2022/06/30 10:37:58;;;;;;;;;;;29.50;1.00;;;;;;5140894;27;20054;-61
2022/06/30 10:41:12;;;;;;;6.78;4.03;;;29.10;1.00;;;;;;5165347;27;19907;-57
2022/06/30 10:44:03;;;;;;;7.30;4.13;;;29.50;1.00;;;;;;5143691;27;20020;-60
2022/06/30 10:46:29;;;;;;;;;;;29.50;1.00;;;;;;5147154;27;20057;-72
2022/06/30 10:48:54;;;;;;;7.47;4.03;;;29.50;1.00;;;;;;5140750;27;19950;-64
2022/06/30 10:51:22;;;;;;;6.68;4.35;;;29.60;1.00;;;;;;5144952;27;20043;-59
2022/06/30 10:53:53;;;;;;;8.77;5.05;;;29.80;1.00;;;;;;5146006;27;20055;-60
2022/06/30 10:56:20;;;;;;;5.93;3.90;;;30.00;1.00;;;;;;5145099;27;20027;-59
2022/06/30 10:59:06;;;;;;;7.07;4.40;;;30.00;1.00;;;;;;5146454;27;20463;-57
2022/06/30 11:01:31;;;;;;;5.38;4.60;;;30.10;1.00;;;;;;5142192;27;20035;-59
2022/06/30 11:03:58;;;;;;;8.20;4.82;;;30.10;1.00;;;;;;5147000;27;20019;-61
2022/06/30 11:06:44;;;;;;;11.57;4.80;;;30.40;1.00;;;;;;5151197;27;20392;-53
2022/06/30 11:09:09;;;;;;;7.68;4.95;;;30.40;1.00;;;;;;5148130;27;20031;-53
2022/06/30 11:11:35;;;;;;;7.32;4.10;;;30.30;1.00;;;;;;5142154;27;20396;-53
2022/06/30 11:14:03;;;;;;;6.10;3.40;;;30.50;1.00;;;;;;5144442;27;20628;-51
2022/06/30 11:16:34;;;;;;;9.88;4.78;;;30.60;1.00;;;;;;5146403;27;20035;-54
2022/06/30 11:19:01;;;;;;;7.15;4.75;;;31.00;1.00;;;;;;5148392;27;20031;-54
2022/06/30 11:21:31;;;;;;;8.02;4.85;;;31.10;1.00;;;;;;5147687;27;20047;-51
2022/06/30 11:24:00;;;;;;;8.82;3.83;;;31.00;1.00;;;;;;5147999;27;20024;-54
2022/06/30 11:29:16;;;;;;;5.88;4.00;;;33.60;1.00;;;;;;5143558;27;20073;-54
2022/06/30 11:31:43;;;;;;;4.70;3.80;;;35.00;1.00;;;;;;5147280;27;20049;-53
2022/06/30 11:34:18;;;;;;;5.10;3.72;;;36.00;1.00;;;;;;5146149;27;20476;-52
2022/06/30 11:36:45;;;;;;;10.73;3.92;;;36.20;1.00;;;;;;5154570;27;20019;-53
2022/06/30 11:39:18;;;;;;;7.13;3.97;;;35.50;1.00;;;;;;5142803;27;20475;-53
2022/06/30 11:42:03;;;;;;;;;;;35.30;1.00;;;;;;5150861;27;20026;-51
2022/06/30 11:44:42;;;;;;;5.40;4.22;;;34.30;1.00;;;;;;5146051;27;19907;-52
2022/06/30 11:47:12;;;;;;;10.20;3.97;;;33.90;1.00;;;;;;5148598;27;20027;-54
2022/06/30 11:49:50;;;;;;;7.43;4.20;;;34.10;1.00;;;;;;5152223;27;20026;-52
2022/06/30 11:52:35;;;;;;;11.68;5.30;;;34.80;1.00;;;;;;5152291;27;20248;-52
2022/06/30 11:55:06;;;;;;;5.05;4.15;;;35.60;1.00;;;;;;5152003;27;20026;-52
2022/06/30 11:57:34;;;;;;;7.03;4.40;;;36.20;1.00;;;;;;5151849;27;20069;-48
2022/06/30 12:00:03;;;;;;;8.77;5.80;;;36.70;1.00;;;;;;5152762;27;20106;-54
2022/06/30 12:02:29;;;;;;;7.03;4.47;;;36.70;1.00;;;;;;5153651;27;20022;-55
2022/06/30 12:04:57;;;;;;;7.97;4.20;;;37.00;1.00;;;;;;5151769;27;20109;-53
2022/06/30 12:07:24;;;;;;;9.10;4.80;;;36.70;1.00;;;;;;5149621;27;20026;-50
2022/06/30 12:09:51;;;;;;;5.45;4.05;;;36.90;1.00;;;;;;5154952;27;20070;-52
2022/06/30 12:12:32;;;;;;;6.38;4.53;;;37.40;1.00;;;;;;5141895;27;20400;-52
2022/06/30 12:15:04;;;;;;;5.18;4.35;;;37.90;1.00;;;;;;5146856;27;20367;-51
2022/06/30 12:17:35;;;;;;;5.22;4.10;;;38.00;1.00;;;;;;5148788;27;20023;-55
2022/06/30 12:20:03;;;;;;;5.00;3.92;;;37.30;1.00;;;;;;5149497;27;20059;-51
2022/06/30 12:22:29;;;;;;;4.72;4.22;;;36.40;1.00;;;;;;5148181;27;20069;-49
2022/06/30 12:24:55;;;;;;;7.18;4.22;;;35.90;1.00;;;;;;5153993;27;20049;-55
2022/06/30 12:27:35;;;;;;;4.85;4.32;;;35.70;1.00;;;;;;5149195;27;20038;-53
2022/06/30 12:30:06;;;;;;;7.78;4.10;;;35.90;1.00;;;;;;5153954;27;20509;-54
2022/06/30 12:32:31;;;;;;;5.32;4.25;;;35.90;1.00;;;;;;5151997;27;20057;-54
2022/06/30 12:35:05;;;;;;;6.88;4.50;;;35.80;1.00;;;;;;5151803;27;20023;-53
2022/06/30 12:37:34;;;;;;;4.90;4.35;;;36.30;1.00;;;;;;5149485;27;20083;-54
2022/06/30 12:40:01;;;;;;;5.53;4.40;;;36.90;1.00;;;;;;5153713;27;20030;-55
2022/06/30 12:42:39;;;;;;;5.88;4.20;;;37.60;1.00;;;;;;5154783;27;20073;-55
2022/06/30 12:45:06;;;;;;;4.90;4.30;;;37.90;1.00;;;;;;5150904;27;20030;-53
2022/06/30 12:47:32;;;;;;;6.63;4.68;;;37.60;1.00;;;;;;5150221;27;20083;-58
2022/06/30 12:50:17;;;;;;;7.07;4.60;;;37.70;1.00;;;;;;5150944;27;20034;-59
2022/06/30 12:52:43;;;;;;;6.25;4.30;;;37.70;1.00;;;;;;5147621;27;20131;-56
2022/06/30 12:55:08;;;;;;;5.90;4.63;;;37.30;1.00;;;;;;5146233;27;20675;-58
2022/06/30 12:57:36;;;;;;;4.38;4.05;;;38.10;1.00;;;;;;5147284;27;20038;-59
2022/06/30 13:00:03;;;;;;;5.85;4.22;;;38.80;1.00;;;;;;5139748;27;20099;-59
2022/06/30 13:02:39;;;;;;;5.63;4.70;;;38.20;1.00;;;;;;5151430;27;20033;-62
2022/06/30 13:05:11;;;;;;;5.00;4.50;;;37.00;1.00;;;;;;5149792;27;20050;-63
2022/06/30 13:07:37;;;;;;;7.63;4.18;;;36.00;1.00;;;;;;5141984;27;20021;-61
2022/06/30 13:10:04;;;;;;;7.07;4.13;;;35.60;1.00;;;;;;5149345;27;20035;-60
2022/06/30 13:12:30;;;;;;;5.65;4.13;;;35.60;1.00;;;;;;5151107;27;20042;-55
2022/06/30 13:14:55;;;;;;;4.13;3.72;;;35.50;1.00;;;;;;5153334;27;20035;-62
2022/06/30 13:17:21;;;;;;;5.40;3.97;;;35.50;1.00;;;;;;5152517;27;20062;-51